Weather Forecast for Dubai Airport 
Saturday, June 24, 2017 (20:33 UTC)
Dubai International Airport
Last Updated: 24-06-2017(20:31Z)
Wind Dir/Speed: SSE at 2 KT
Temperature: 35.2 °C
Rel. Humidity: 45 %
Pressure: 998.8 hPa
Visibility: 10000 m
  • METAR OMDB 242030Z 21004KT CAVOK 36/22 Q0998 NOSIG
NEXT 5 DAY FORECAST (OMDB): as on 24-June-2017
SATURDAY
HIGH:
42 °C
LOW:
34 °C
SUNDAY
HIGH:
41 °C
LOW:
32 °C
MONDAY
HIGH:
41 °C
LOW:
31 °C
TUESDAY
HIGH:
42 °C
LOW:
32 °C
WEDNESDAY
HIGH:
45 °C
LOW:
33 °C

DUBAI AIRPORT WEATHER FORECAST FOR 30 HOUR:
DUBAI TAF:
TAF OMDB 241700Z 2418/2600 19005KT CAVOK 
 BECMG 2506/2508 29012KT 
 BECMG 2516/2518 18005KT=
VALID FROM:
2017-06-24 18:00Z
VALID TILL:
2017-06-26 00:00Z
SURFACE WIND:
S'LY 05KT

BECOMING WNW'LY 12KT FROM 0600Z-0800Z SUNDAY

BECOMING SW'LY 05KT FROM 1600Z-1800Z SUNDAY.
VISIBILITY:
07-12 KM.
WEATHER:
FINE.
CLOUD:
NIL SIGNIFICANT.
TEMPERATURE:
MIN TEMPERATURE 32°C AROUND 0200Z SUNDAY

MAX TEMPERATURE 40°C AROUND 0800Z SUNDAY.
HUMIDITY:
MAX HUMIDITY 80% AROUND 0200Z SUNDAY

MIN HUMIDITY 25% AROUND 0800Z SUNDAY.
WIND SHEAR:
NIL SIGNIFICANT.
TEMPERATURE INVERSION:
NIL SIGNIFICANT.
COMMENTS:
NIL.